Time;durP1;ratioP1;P1;durP2;ratioP2;P2;SDS_P1;SDS_P2;PMS_P1;PMS_P2;Temp;Humidity;BMP_temperature;BMP_pressure;BME280_temperature;BME280_humidity;BME280_pressure;Samples;Min_cycle;Max_cycle;Signal;HPM_P1;HPM_P2
2021/06/04 00:01:04;;;;;;;23.10;15.30;;;;;;;;;;5054521;27;36853;-77
2021/06/04 00:03:30;;;;;;;23.90;16.20;;;;;;;;;;5054213;27;48554;-78
2021/06/04 00:05:57;;;;;;;25.83;16.35;;;;;;;;;;5057190;27;37507;-78
2021/06/04 00:08:24;;;;;;;22.30;17.10;;;;;;;;;;5061178;27;39294;-78
2021/06/04 00:10:57;;;;;;;22.00;16.38;;;;;;;;;;5050541;28;38960;-78
2021/06/04 00:13:37;;;;;;;27.58;19.27;;;;;;;;;;5054893;28;38935;-77
2021/06/04 00:16:09;;;;;;;28.42;19.75;;;;;;;;;;5057670;28;37988;-78
2021/06/04 00:18:36;;;;;;;24.17;17.75;;;;;;;;;;5060353;28;39690;-78
2021/06/04 00:21:03;;;;;;;26.10;18.05;;;;;;;;;;5064126;28;40114;-78
2021/06/04 00:23:30;;;;;;;29.25;20.60;;;;;;;;;;5058456;28;39620;-78
2021/06/04 00:25:56;;;;;;;28.73;20.48;;;;;;;;;;5053572;27;37259;-78
2021/06/04 00:28:23;;;;;;;24.95;19.33;;;;;;;;;;5049103;28;39240;-78
2021/06/04 00:30:49;;;;;;;33.33;20.25;;;;;;;;;;5057210;27;39540;-78
2021/06/04 00:33:16;;;;;;;30.83;20.42;;;;;;;;;;5051272;28;39264;-77
2021/06/04 00:35:42;;;;;;;28.48;20.42;;;;;;;;;;5048829;28;37773;-77
2021/06/04 00:38:09;;;;;;;31.52;21.30;;;;;;;;;;5062866;27;38461;-77
2021/06/04 00:40:38;;;;;;;31.73;21.40;;;;;;;;;;5058695;28;39286;-79
2021/06/04 00:43:05;;;;;;;34.08;22.15;;;;;;;;;;5051327;28;38315;-76
2021/06/04 00:45:33;;;;;;;32.70;21.10;;;;;;;;;;5057702;28;37743;-78
2021/06/04 00:48:00;;;;;;;30.92;21.90;;;;;;;;;;5058333;27;39845;-78
2021/06/04 00:50:46;;;;;;;33.38;23.50;;;;;;;;;;5050275;27;41345;-77
2021/06/04 00:53:13;;;;;;;33.75;22.55;;;;;;;;;;5055043;27;39520;-79
2021/06/04 00:55:40;;;;;;;32.03;21.85;;;;;;;;;;5048837;28;37424;-78
2021/06/04 00:58:07;;;;;;;38.58;23.83;;;;;;;;;;5052393;27;38593;-78
2021/06/04 01:00:35;;;;;;;31.85;21.23;;;;;;;;;;5059303;28;37999;-78
2021/06/04 01:03:03;;;;;;;38.13;24.90;;;;;;;;;;5054886;27;38787;-78
2021/06/04 01:05:31;;;;;;;40.85;26.20;;;;;;;;;;5050125;28;38383;-78
2021/06/04 01:08:13;;;;;;;36.47;24.63;;;;;;;;;;5052820;28;39544;-78
2021/06/04 01:10:55;;;;;;;36.45;25.60;;;;;;;;;;5030212;28;46853;-78
2021/06/04 01:13:33;;;;;;;40.35;25.67;;;;;;;;;;5038551;27;39647;-78
2021/06/04 01:16:06;;;;;;;37.25;25.75;;;;;;;;;;5035755;28;37896;-78
2021/06/04 01:18:33;;;;;;;41.60;26.67;;;;;;;;;;5031599;28;47563;-77
2021/06/04 01:21:06;;;;;;;42.83;26.55;;;;;;;;;;5042267;28;39385;-78
2021/06/04 01:23:39;;;;;;;40.72;24.33;;;;;;;;;;5047369;28;48889;-78
2021/06/04 01:26:11;;;;;;;36.10;25.48;;;;;;;;;;5057208;27;37392;-78
2021/06/04 01:28:46;;;;;;;41.88;25.77;;;;;;;;;;5073224;27;40749;-78
2021/06/04 01:31:15;;;;;;;37.38;24.55;;;;;;;;;;5052177;28;38313;-78
2021/06/04 01:33:53;;;;;;;41.55;25.95;;;;;;;;;;5048354;28;38735;-78
2021/06/04 01:36:25;;;;;;;39.53;25.70;;;;;;;;;;5053967;27;38564;-77
2021/06/04 01:38:52;;;;;;;34.15;23.85;;;;;;;;;;5058630;28;40350;-78
2021/06/04 01:41:20;;;;;;;40.97;24.15;;;;;;;;;;5058026;28;40553;-78
2021/06/04 01:43:48;;;;;;;39.10;24.98;;;;;;;;;;5056917;27;37172;-78
2021/06/04 01:46:25;;;;;;;33.90;21.92;;;;;;;;;;5050464;28;38573;-78
2021/06/04 01:48:52;;;;;;;37.35;24.77;;;;;;;;;;5050329;28;39504;-78
2021/06/04 01:51:39;;;;;;;34.63;23.27;;;;;;;;;;5050881;27;38934;-77
2021/06/04 01:54:13;;;;;;;41.22;25.23;;;;;;;;;;5051671;28;38665;-78
2021/06/04 01:56:42;;;;;;;42.83;25.50;;;;;;;;;;5046112;28;37148;-78
2021/06/04 01:59:29;;;;;;;41.55;24.40;;;;;;;;;;5055335;28;39574;-79
2021/06/04 02:01:55;;;;;;;40.00;25.50;;;;;;;;;;5058971;28;38631;-79
2021/06/04 02:04:30;;;;;;;38.75;25.33;;;;;;;;;;5056509;28;40560;-80
2021/06/04 02:06:57;;;;;;;36.80;23.48;;;;;;;;;;5055456;27;37294;-78
2021/06/04 02:09:24;;;;;;;38.03;23.08;;;;;;;;;;5050672;27;39111;-78
2021/06/04 02:11:51;;;;;;;42.88;24.52;;;;;;;;;;5051438;28;39160;-78
2021/06/04 02:14:20;;;;;;;40.05;25.27;;;;;;;;;;5057351;28;40302;-77
2021/06/04 02:16:46;;;;;;;44.22;27.73;;;;;;;;;;5056095;28;37313;-78
2021/06/04 02:19:15;;;;;;;45.15;26.48;;;;;;;;;;5059633;27;38564;-77
2021/06/04 02:21:49;;;;;;;44.38;28.25;;;;;;;;;;5051706;27;37926;-78
2021/06/04 02:24:20;;;;;;;45.80;26.67;;;;;;;;;;5049074;27;37979;-77
2021/06/04 02:26:52;;;;;;;47.47;27.20;;;;;;;;;;5052895;28;39026;-79
2021/06/04 02:29:22;;;;;;;52.60;31.60;;;;;;;;;;5056601;27;37398;-77
2021/06/04 02:31:51;;;;;;;45.58;28.98;;;;;;;;;;5051518;28;38522;-78
2021/06/04 02:34:23;;;;;;;42.25;27.65;;;;;;;;;;5050674;27;36688;-77
2021/06/04 02:36:53;;;;;;;51.40;29.73;;;;;;;;;;5053808;27;37275;-78
2021/06/04 02:39:22;;;;;;;46.75;27.83;;;;;;;;;;5055390;28;39300;-77
2021/06/04 02:41:53;;;;;;;46.47;27.52;;;;;;;;;;5079679;28;38940;-78
2021/06/04 02:44:31;;;;;;;51.28;29.27;;;;;;;;;;5047340;28;39258;-78
2021/06/04 02:46:59;;;;;;;40.35;27.30;;;;;;;;;;5050005;27;36788;-76
2021/06/04 02:49:27;;;;;;;48.13;30.92;;;;;;;;;;5053783;28;37964;-80
2021/06/04 02:51:56;;;;;;;48.72;28.55;;;;;;;;;;5054409;27;38214;-79
2021/06/04 02:54:27;;;;;;;50.42;30.65;;;;;;;;;;5055593;27;37974;-79
2021/06/04 02:56:56;;;;;;;43.38;27.95;;;;;;;;;;5089702;27;36161;-79
2021/06/04 02:59:25;;;;;;;45.13;27.48;;;;;;;;;;5050453;28;38304;-79
2021/06/04 03:01:54;;;;;;;39.17;26.50;;;;;;;;;;5052477;28;41754;-79
2021/06/04 03:04:21;;;;;;;46.30;27.58;;;;;;;;;;5049062;28;37307;-79
2021/06/04 03:06:52;;;;;;;41.88;27.00;;;;;;;;;;5047076;28;38538;-80
2021/06/04 03:09:22;;;;;;;42.57;27.60;;;;;;;;;;5053528;27;39647;-79
2021/06/04 03:11:50;;;;;;;42.38;26.40;;;;;;;;;;5054018;27;38273;-78
2021/06/04 03:14:17;;;;;;;40.88;27.90;;;;;;;;;;5059056;27;38174;-78
2021/06/04 03:16:44;;;;;;;38.55;24.63;;;;;;;;;;5048545;28;38155;-80
2021/06/04 03:19:12;;;;;;;45.65;27.50;;;;;;;;;;5050159;27;37554;-79
2021/06/04 03:21:44;;;;;;;35.97;26.23;;;;;;;;;;5059524;27;38339;-78
2021/06/04 03:24:12;;;;;;;46.53;28.98;;;;;;;;;;5056211;27;38810;-78
2021/06/04 03:26:40;;;;;;;43.55;28.10;;;;;;;;;;5059354;28;37634;-79
2021/06/04 03:29:09;;;;;;;43.65;26.55;;;;;;;;;;5053818;27;38866;-78
2021/06/04 03:31:36;;;;;;;42.78;26.95;;;;;;;;;;5053676;27;38540;-79
2021/06/04 03:34:03;;;;;;;41.70;26.33;;;;;;;;;;5051910;27;38105;-78
2021/06/04 03:36:31;;;;;;;39.42;27.48;;;;;;;;;;5054963;28;37774;-79
2021/06/04 03:38:57;;;;;;;41.15;25.65;;;;;;;;;;5059263;27;38752;-78
2021/06/04 03:41:26;;;;;;;37.33;26.13;;;;;;;;;;5060385;27;38468;-79
2021/06/04 03:43:53;;;;;;;42.72;26.88;;;;;;;;;;5049922;28;39734;-79
2021/06/04 03:46:19;;;;;;;39.38;27.67;;;;;;;;;;5053261;27;37282;-78
2021/06/04 03:48:46;;;;;;;35.25;23.92;;;;;;;;;;5058623;28;39677;-78
2021/06/04 03:51:14;;;;;;;40.60;25.25;;;;;;;;;;5052539;27;39069;-78
2021/06/04 03:53:41;;;;;;;39.40;27.52;;;;;;;;;;5062511;28;38476;-77
2021/06/04 03:56:08;;;;;;;33.13;24.27;;;;;;;;;;5061482;27;37098;-77
2021/06/04 03:58:35;;;;;;;44.33;27.13;;;;;;;;;;5055179;28;38220;-79
2021/06/04 04:01:06;;;;;;;36.65;25.20;;;;;;;;;;5056629;27;38043;-80
2021/06/04 04:03:32;;;;;;;36.78;23.92;;;;;;;;;;5054059;27;38676;-78
2021/06/04 04:05:58;;;;;;;37.00;24.88;;;;;;;;;;5056029;27;37898;-77
2021/06/04 04:08:26;;;;;;;39.60;25.10;;;;;;;;;;5056219;28;39291;-77
2021/06/04 04:10:53;;;;;;;42.33;25.15;;;;;;;;;;5063549;27;39798;-80
2021/06/04 04:13:21;;;;;;;41.45;27.58;;;;;;;;;;5052840;27;38752;-79
2021/06/04 04:15:48;;;;;;;41.78;27.08;;;;;;;;;;5067689;27;37002;-79
2021/06/04 04:18:15;;;;;;;43.88;28.40;;;;;;;;;;5050895;27;38856;-79
2021/06/04 04:20:44;;;;;;;39.30;26.23;;;;;;;;;;5051590;28;38295;-79
2021/06/04 04:23:12;;;;;;;42.10;26.67;;;;;;;;;;5060295;27;39279;-78
2021/06/04 04:25:40;;;;;;;44.70;27.80;;;;;;;;;;5052020;28;37678;-79
2021/06/04 04:28:09;;;;;;;42.22;27.70;;;;;;;;;;5058149;27;40092;-78
2021/06/04 04:30:35;;;;;;;38.83;28.35;;;;;;;;;;5055598;28;39829;-80
2021/06/04 04:33:02;;;;;;;46.38;29.33;;;;;;;;;;5052806;27;38425;-78
2021/06/04 04:35:30;;;;;;;39.63;27.85;;;;;;;;;;5051434;28;38070;-78
2021/06/04 04:37:56;;;;;;;39.53;27.67;;;;;;;;;;5054224;27;39061;-78
2021/06/04 04:40:24;;;;;;;51.88;30.05;;;;;;;;;;5055268;28;40369;-79
2021/06/04 04:42:51;;;;;;;45.55;29.83;;;;;;;;;;5055420;27;38434;-77
2021/06/04 04:45:18;;;;;;;46.47;30.10;;;;;;;;;;5052377;27;37730;-79
2021/06/04 04:47:45;;;;;;;48.10;30.58;;;;;;;;;;5051891;28;38852;-79
2021/06/04 04:50:12;;;;;;;47.25;30.40;;;;;;;;;;5057829;27;38572;-79
2021/06/04 04:52:39;;;;;;;45.58;28.23;;;;;;;;;;5057436;27;38361;-79
2021/06/04 04:55:06;;;;;;;41.92;28.80;;;;;;;;;;5053050;27;37727;-80
2021/06/04 04:57:33;;;;;;;40.78;28.30;;;;;;;;;;5058985;28;39409;-78
2021/06/04 04:59:59;;;;;;;47.65;29.02;;;;;;;;;;5057629;28;37306;-79
2021/06/04 05:02:26;;;;;;;40.53;27.42;;;;;;;;;;5049135;28;39029;-81
2021/06/04 05:04:53;;;;;;;43.25;28.25;;;;;;;;;;5062466;27;38234;-78
2021/06/04 05:07:19;;;;;;;46.40;28.55;;;;;;;;;;5061903;27;39230;-79
2021/06/04 05:09:45;;;;;;;48.20;28.33;;;;;;;;;;5060837;27;38411;-78
2021/06/04 05:12:12;;;;;;;35.67;25.25;;;;;;;;;;5056891;28;38760;-78
2021/06/04 05:14:39;;;;;;;43.20;26.80;;;;;;;;;;5069814;27;37715;-80
2021/06/04 05:17:06;;;;;;;36.33;24.00;;;;;;;;;;5063707;27;38930;-78
2021/06/04 05:19:32;;;;;;;34.58;25.42;;;;;;;;;;5060577;28;37222;-78
2021/06/04 05:21:59;;;;;;;29.73;22.40;;;;;;;;;;5060359;28;38744;-79
2021/06/04 05:24:25;;;;;;;35.67;23.00;;;;;;;;;;5061269;27;38236;-77
2021/06/04 05:26:52;;;;;;;37.60;25.33;;;;;;;;;;5056487;28;40907;-78
2021/06/04 05:29:18;;;;;;;35.70;22.70;;;;;;;;;;5054405;27;38648;-78
2021/06/04 05:31:45;;;;;;;29.63;22.17;;;;;;;;;;5057602;28;39780;-78
2021/06/04 05:34:12;;;;;;;29.52;21.85;;;;;;;;;;5053710;27;37646;-79
2021/06/04 05:36:39;;;;;;;36.53;22.73;;;;;;;;;;5055968;28;39097;-78
2021/06/04 05:39:10;;;;;;;35.08;23.92;;;;;;;;;;5059575;28;39148;-77
2021/06/04 05:41:40;;;;;;;30.98;21.23;;;;;;;;;;5053436;27;38330;-79
2021/06/04 05:44:08;;;;;;;28.83;22.00;;;;;;;;;;5056329;28;37217;-78
2021/06/04 05:46:35;;;;;;;32.45;21.60;;;;;;;;;;5055753;27;39153;-78
2021/06/04 05:49:01;;;;;;;24.75;18.75;;;;;;;;;;5053891;28;38571;-78
2021/06/04 05:51:29;;;;;;;27.25;20.85;;;;;;;;;;5053815;28;48569;-78
2021/06/04 05:53:56;;;;;;;28.42;21.25;;;;;;;;;;5063021;27;37110;-78
2021/06/04 05:56:27;;;;;;;32.15;21.15;;;;;;;;;;5047534;28;39623;-78
2021/06/04 05:58:54;;;;;;;27.83;19.37;;;;;;;;;;5065023;27;39521;-78
2021/06/04 06:01:25;;;;;;;28.05;18.33;;;;;;;;;;5058735;27;38288;-78
2021/06/04 06:03:51;;;;;;;25.92;18.85;;;;;;;;;;5057731;28;38718;-80
2021/06/04 06:06:18;;;;;;;22.67;17.70;;;;;;;;;;5051050;27;39790;-80
2021/06/04 06:08:45;;;;;;;26.42;18.60;;;;;;;;;;5052946;28;39240;-78
2021/06/04 06:11:13;;;;;;;22.65;18.00;;;;;;;;;;5056719;27;38931;-79
2021/06/04 06:13:40;;;;;;;24.73;17.10;;;;;;;;;;5055594;28;38269;-79
2021/06/04 06:16:07;;;;;;;25.63;17.45;;;;;;;;;;5044830;28;39167;-80
2021/06/04 06:18:33;;;;;;;21.08;17.00;;;;;;;;;;5051483;28;39063;-78
2021/06/04 06:21:00;;;;;;;20.48;17.30;;;;;;;;;;5058723;28;38846;-79
2021/06/04 06:23:31;;;;;;;20.48;14.27;;;;;;;;;;5050159;27;37971;-79
2021/06/04 06:26:01;;;;;;;18.60;15.90;;;;;;;;;;5051364;28;37896;-79
2021/06/04 06:28:29;;;;;;;22.80;16.77;;;;;;;;;;5062637;28;47575;-77
2021/06/04 06:30:56;;;;;;;23.38;17.75;;;;;;;;;;5071561;28;38480;-78
2021/06/04 06:33:22;;;;;;;25.85;19.10;;;;;;;;;;5059686;28;37731;-79
2021/06/04 06:35:51;;;;;;;25.30;17.95;;;;;;;;;;5061806;28;39069;-79
2021/06/04 06:38:18;;;;;;;24.08;16.85;;;;;;;;;;5061923;27;39465;-78
2021/06/04 06:40:46;;;;;;;19.83;16.13;;;;;;;;;;5061976;27;38304;-78
2021/06/04 06:43:12;;;;;;;20.63;16.73;;;;;;;;;;5056241;27;38216;-79
2021/06/04 06:45:39;;;;;;;20.23;14.35;;;;;;;;;;5053166;28;38735;-79
2021/06/04 06:48:06;;;;;;;23.23;15.50;;;;;;;;;;5058133;28;39610;-79
2021/06/04 06:50:33;;;;;;;20.65;14.82;;;;;;;;;;5056239;27;39641;-80
2021/06/04 06:53:02;;;;;;;22.45;15.00;;;;;;;;;;5061692;28;38806;-79
2021/06/04 06:55:29;;;;;;;25.70;16.48;;;;;;;;;;5053823;27;48075;-78
2021/06/04 06:57:56;;;;;;;22.17;14.98;;;;;;;;;;5060322;28;38152;-80
2021/06/04 07:00:25;;;;;;;19.63;14.65;;;;;;;;;;5068115;27;38945;-79
2021/06/04 07:02:51;;;;;;;18.88;14.25;;;;;;;;;;5066440;27;37642;-80
2021/06/04 07:05:19;;;;;;;18.52;12.82;;;;;;;;;;5080670;27;38820;-79
2021/06/04 07:07:45;;;;;;;17.08;13.07;;;;;;;;;;5070215;27;38804;-79
2021/06/04 07:10:14;;;;;;;16.10;12.07;;;;;;;;;;5069786;27;38214;-81
2021/06/04 07:12:41;;;;;;;18.08;12.02;;;;;;;;;;5036453;28;38746;-78
2021/06/04 07:15:10;;;;;;;21.45;11.48;;;;;;;;;;5040213;28;39845;-80
2021/06/04 07:17:38;;;;;;;18.98;12.55;;;;;;;;;;5045954;28;38765;-80
2021/06/04 07:20:05;;;;;;;14.00;11.45;;;;;;;;;;5037184;28;38042;-80
2021/06/04 07:22:31;;;;;;;15.32;10.30;;;;;;;;;;5043198;28;38225;-79
2021/06/04 07:24:58;;;;;;;15.15;12.13;;;;;;;;;;5037407;28;39855;-79
2021/06/04 07:27:26;;;;;;;17.13;12.82;;;;;;;;;;5060532;28;39030;-78
2021/06/04 07:29:52;;;;;;;14.68;9.35;;;;;;;;;;5043501;28;37938;-78
2021/06/04 07:32:18;;;;;;;12.95;8.90;;;;;;;;;;5039914;28;37879;-79
2021/06/04 07:34:47;;;;;;;13.98;10.07;;;;;;;;;;5068318;28;39376;-79
2021/06/04 07:37:14;;;;;;;14.02;11.32;;;;;;;;;;5043837;28;38836;-79
2021/06/04 07:39:40;;;;;;;12.68;9.95;;;;;;;;;;5046145;28;37022;-77
2021/06/04 07:42:08;;;;;;;11.18;8.38;;;;;;;;;;5044755;28;38140;-78
2021/06/04 07:44:35;;;;;;;11.90;8.88;;;;;;;;;;5032601;28;40530;-81
2021/06/04 07:47:01;;;;;;;15.23;9.82;;;;;;;;;;5037607;28;38498;-78
2021/06/04 07:49:28;;;;;;;12.43;8.98;;;;;;;;;;5070283;28;39955;-78
2021/06/04 07:51:56;;;;;;;11.15;8.93;;;;;;;;;;5060131;28;37519;-81
2021/06/04 07:54:24;;;;;;;11.07;7.38;;;;;;;;;;5032635;28;39456;-80
2021/06/04 07:56:51;;;;;;;10.10;8.25;;;;;;;;;;5037660;28;39267;-78
2021/06/04 07:59:17;;;;;;;12.20;9.00;;;;;;;;;;5043315;28;39795;-80
2021/06/04 08:01:44;;;;;;;9.35;7.72;;;;;;;;;;5073408;27;37441;-78
2021/06/04 08:04:11;;;;;;;13.10;8.20;;;;;;;;;;5040018;28;40891;-80
2021/06/04 08:06:38;;;;;;;14.00;9.25;;;;;;;;;;5038782;27;40416;-78
2021/06/04 08:09:06;;;;;;;8.98;6.15;;;;;;;;;;5074225;28;38142;-78
2021/06/04 08:11:37;;;;;;;11.27;7.75;;;;;;;;;;5042405;28;38077;-79
2021/06/04 08:14:06;;;;;;;14.65;8.00;;;;;;;;;;5037905;28;38747;-79
2021/06/04 08:16:34;;;;;;;10.27;7.05;;;;;;;;;;5040064;28;38332;-79
2021/06/04 08:19:00;;;;;;;10.85;7.63;;;;;;;;;;5039689;28;38609;-78
2021/06/04 08:21:31;;;;;;;12.57;7.43;;;;;;;;;;5045429;27;37861;-77
2021/06/04 08:23:57;;;;;;;9.32;6.50;;;;;;;;;;5039720;28;39035;-78
2021/06/04 08:26:31;;;;;;;10.23;6.40;;;;;;;;;;5045159;27;39122;-78
2021/06/04 08:28:57;;;;;;;11.95;6.72;;;;;;;;;;5032539;28;38199;-78
2021/06/04 08:31:24;;;;;;;11.00;7.47;;;;;;;;;;5068842;28;37709;-78
2021/06/04 08:33:51;;;;;;;11.75;7.47;;;;;;;;;;5062343;28;41176;-78
2021/06/04 08:36:22;;;;;;;9.73;7.18;;;;;;;;;;5045779;28;38423;-79
2021/06/04 08:38:49;;;;;;;11.13;7.68;;;;;;;;;;5037680;28;38800;-79
2021/06/04 08:41:19;;;;;;;12.10;7.55;;;;;;;;;;5026779;28;37433;-79
2021/06/04 08:44:12;;;;;;;9.13;6.30;;;;;;;;;;5044464;28;38859;-78
2021/06/04 08:46:44;;;;;;;12.23;7.85;;;;;;;;;;5014434;28;50303;-80
2021/06/04 08:49:17;;;;;;;11.05;6.53;;;;;;;;;;5039773;28;38367;-79
2021/06/04 08:52:02;;;;;;;15.18;8.32;;;;;;;;;;5041024;28;36833;-78
2021/06/04 08:54:31;;;;;;;16.23;9.80;;;;;;;;;;5066989;27;49182;-78
2021/06/04 08:57:02;;;;;;;19.05;10.40;;;;;;;;;;5064682;27;38246;-79
2021/06/04 08:59:30;;;;;;;17.75;10.15;;;;;;;;;;5060856;27;46965;-78
2021/06/04 09:01:59;;;;;;;16.55;9.82;;;;;;;;;;5079622;28;37546;-79
2021/06/04 09:04:30;;;;;;;20.30;10.48;;;;;;;;;;5048272;28;39443;-79
2021/06/04 09:07:06;;;;;;;17.63;10.43;;;;;;;;;;5076059;28;39275;-77
2021/06/04 09:09:36;;;;;;;16.60;9.95;;;;;;;;;;5064270;27;48996;-79
2021/06/04 09:12:11;;;;;;;18.70;9.35;;;;;;;;;;5062699;28;37296;-76
2021/06/04 09:14:38;;;;;;;11.23;8.45;;;;;;;;;;5055401;27;40447;-78
2021/06/04 09:17:08;;;;;;;15.05;9.68;;;;;;;;;;5057379;28;38879;-77
2021/06/04 09:19:39;;;;;;;19.13;11.20;;;;;;;;;;5055327;27;38337;-77
2021/06/04 09:22:07;;;;;;;17.20;10.90;;;;;;;;;;5056233;27;37663;-78
2021/06/04 09:24:34;;;;;;;16.98;10.82;;;;;;;;;;5066304;28;38810;-78
2021/06/04 09:27:00;;;;;;;17.38;12.85;;;;;;;;;;5062215;28;38883;-77
2021/06/04 09:29:29;;;;;;;19.08;13.77;;;;;;;;;;5042158;28;39722;-77
2021/06/04 09:31:57;;;;;;;22.52;14.40;;;;;;;;;;5049537;28;38559;-76
2021/06/04 09:34:28;;;;;;;19.70;14.38;;;;;;;;;;5049277;27;40355;-77
2021/06/04 09:36:58;;;;;;;17.42;12.00;;;;;;;;;;5059181;28;39327;-77
2021/06/04 09:39:24;;;;;;;19.02;11.68;;;;;;;;;;5062831;28;39023;-77
2021/06/04 09:41:51;;;;;;;15.75;11.55;;;;;;;;;;5047581;27;37010;-77
2021/06/04 09:44:19;;;;;;;17.02;11.60;;;;;;;;;;5049125;28;39900;-77
2021/06/04 09:47:04;;;;;;;17.98;12.82;;;;;;;;;;5050922;27;39445;-77
2021/06/04 09:49:43;;;;;;;19.27;12.80;;;;;;;;;;5064943;28;45580;-77
2021/06/04 09:52:18;;;;;;;15.18;10.30;;;;;;;;;;5045965;27;38720;-77
2021/06/04 09:54:45;;;;;;;15.27;10.55;;;;;;;;;;5051713;28;40407;-78
2021/06/04 09:57:19;;;;;;;14.50;9.90;;;;;;;;;;5051667;27;39314;-77
2021/06/04 09:59:46;;;;;;;16.63;10.80;;;;;;;;;;5077846;27;38943;-76
2021/06/04 10:02:31;;;;;;;14.80;9.20;;;;;;;;;;5052570;28;36954;-78
2021/06/04 10:05:12;;;;;;;13.48;9.32;;;;;;;;;;5056986;28;39193;-78
2021/06/04 10:07:39;;;;;;;;;;;;;;;;;;5046258;28;47413;-77
2021/06/04 10:10:14;;;;;;;11.90;9.27;;;;;;;;;;5047697;28;39483;-76
2021/06/04 10:12:44;;;;;;;14.13;8.77;;;;;;;;;;5051952;28;36987;-78
2021/06/04 10:15:24;;;;;;;7.95;6.10;;;;;;;;;;5048270;28;38715;-79
2021/06/04 10:20:23;;;;;;;8.48;5.78;;;;;;;;;;5056407;27;39397;-78
2021/06/04 10:22:52;;;;;;;9.45;6.20;;;;;;;;;;5052844;28;37727;-78
2021/06/04 10:25:25;;;;;;;10.52;6.80;;;;;;;;;;5053395;28;39559;-79
2021/06/04 10:27:53;;;;;;;9.63;6.55;;;;;;;;;;5055506;28;38525;-79
2021/06/04 10:30:26;;;;;;;9.85;7.80;;;;;;;;;;5057444;27;38106;-81
2021/06/04 10:33:08;;;;;;;12.13;7.32;;;;;;;;;;5055623;27;36618;-78
2021/06/04 10:35:34;;;;;;;;;;;;;;;;;;5045638;28;47163;-81
2021/06/04 10:38:03;;;;;;;11.07;6.93;;;;;;;;;;5048142;28;38952;-78
2021/06/04 10:40:49;;;;;;;8.95;6.10;;;;;;;;;;5076378;27;47342;-77
2021/06/04 10:43:23;;;;;;;12.23;6.13;;;;;;;;;;5037700;27;37313;-78
2021/06/04 10:46:13;;;;;;;14.65;6.60;;;;;;;;;;5036120;28;38834;-79
2021/06/04 10:49:00;;;;;;;20.73;7.63;;;;;;;;;;5051004;28;48574;-77
2021/06/04 10:51:36;;;;;;;10.20;6.07;;;;;;;;;;5010006;28;38476;-79
2021/06/04 10:54:08;;;;;;;11.45;6.45;;;;;;;;;;5036585;28;36906;-80
2021/06/04 10:56:37;;;;;;;8.98;5.63;;;;;;;;;;5029806;28;47793;-77
2021/06/04 10:59:15;;;;;;;10.55;6.05;;;;;;;;;;5034112;27;39203;-78
2021/06/04 11:01:52;;;;;;;8.48;6.22;;;;;;;;;;5038111;27;39298;-77
2021/06/04 11:04:42;;;;;;;11.02;6.65;;;;;;;;;;5071329;27;37000;-78
2021/06/04 11:07:29;;;;;;;11.30;6.80;;;;;;;;;;5045350;27;38749;-77
2021/06/04 11:10:00;;;;;;;10.73;7.13;;;;;;;;;;5052516;27;38713;-76
2021/06/04 11:12:33;;;;;;;10.63;6.53;;;;;;;;;;5043632;28;47595;-76
2021/06/04 11:15:09;;;;;;;10.95;7.03;;;;;;;;;;5036870;28;36911;-77
2021/06/04 11:17:42;;;;;;;8.70;5.72;;;;;;;;;;5055524;28;48365;-76
2021/06/04 11:20:11;;;;;;;8.43;5.55;;;;;;;;;;5046892;28;36984;-77
2021/06/04 11:22:38;;;;;;;6.75;5.78;;;;;;;;;;5043729;28;38988;-77
2021/06/04 11:25:07;;;;;;;9.07;5.53;;;;;;;;;;5058313;28;36699;-79
2021/06/04 11:27:36;;;;;;;8.07;5.40;;;;;;;;;;5035113;28;49787;-78
2021/06/04 11:30:23;;;;;;;11.55;5.63;;;;;;;;;;5035183;28;37530;-77
2021/06/04 11:32:55;;;;;;;11.05;5.90;;;;;;;;;;5027870;28;47601;-76
2021/06/04 11:35:27;;;;;;;6.53;5.10;;;;;;;;;;5031877;28;36426;-75
2021/06/04 11:38:02;;;;;;;8.55;6.65;;;;;;;;;;5036033;28;40735;-75
2021/06/04 11:40:33;;;;;;;7.38;5.95;;;;;;;;;;5059301;28;48834;-76
2021/06/04 11:43:04;;;;;;;10.80;7.30;;;;;;;;;;5058980;27;38579;-80
2021/06/04 11:45:31;;;;;;;11.15;7.88;;;;;;;;;;5060679;28;49082;-77
2021/06/04 11:48:17;;;;;;;10.70;6.80;;;;;;;;;;5058966;28;39818;-76
2021/06/04 11:50:43;;;;;;;13.55;8.93;;;;;;;;;;5053430;27;48866;-75
2021/06/04 11:53:16;;;;;;;15.38;9.18;;;;;;;;;;5049639;28;38438;-78
2021/06/04 11:55:43;;;;;;;12.15;9.02;;;;;;;;;;5038988;28;37209;-76
2021/06/04 11:58:38;;;;;;;10.88;9.07;;;;;;;;;;5040077;28;39701;-78
2021/06/04 12:01:23;;;;;;;10.93;9.52;;;;;;;;;;5064451;28;39754;-77
2021/06/04 12:03:51;;;;;;;14.13;11.63;;;;;;;;;;5043484;28;38168;-79
2021/06/04 12:06:23;;;;;;;14.10;11.50;;;;;;;;;;5030920;28;36926;-76
2021/06/04 12:08:50;;;;;;;16.20;10.48;;;;;;;;;;5060513;28;39219;-78
2021/06/04 12:11:17;;;;;;;13.18;10.68;;;;;;;;;;5025672;28;39195;-77
2021/06/04 12:13:45;;;;;;;15.43;11.55;;;;;;;;;;5067428;28;40035;-76
2021/06/04 12:16:25;;;;;;;14.95;11.93;;;;;;;;;;5038332;28;38062;-78
2021/06/04 12:18:57;;;;;;;11.00;9.38;;;;;;;;;;5039090;28;38239;-78
2021/06/04 12:21:39;;;;;;;14.93;11.30;;;;;;;;;;5063413;28;37304;-78
2021/06/04 12:24:10;;;;;;;12.50;8.63;;;;;;;;;;5036424;28;36698;-76
2021/06/04 12:26:42;;;;;;;15.48;11.02;;;;;;;;;;5050636;27;37402;-78
2021/06/04 12:29:24;;;;;;;14.13;9.13;;;;;;;;;;5057043;27;38807;-78
2021/06/04 12:31:53;;;;;;;16.30;11.38;;;;;;;;;;5045362;28;38958;-77
2021/06/04 12:37:04;;;;;;;13.02;10.20;;;;;;;;;;5057936;28;38825;-76
2021/06/04 12:39:35;;;;;;;12.98;10.13;;;;;;;;;;5051706;28;37723;-77
2021/06/04 12:42:02;;;;;;;;;;;;;;;;;;5070234;27;39326;-77
2021/06/04 12:44:28;;;;;;;14.30;9.95;;;;;;;;;;5052150;28;37947;-78
2021/06/04 12:46:55;;;;;;;15.15;12.13;;;;;;;;;;5053235;27;37327;-77
2021/06/04 12:49:22;;;;;;;16.15;11.60;;;;;;;;;;5060422;27;38790;-79
2021/06/04 12:51:51;;;;;;;14.93;10.52;;;;;;;;;;5052305;28;39515;-78
2021/06/04 12:54:25;;;;;;;14.13;11.45;;;;;;;;;;5065208;28;37197;-78
2021/06/04 12:56:53;;;;;;;11.23;9.98;;;;;;;;;;5064981;28;36829;-78
2021/06/04 12:59:24;;;;;;;17.20;11.43;;;;;;;;;;5053307;28;38166;-77
2021/06/04 13:01:56;;;;;;;14.35;9.55;;;;;;;;;;5071348;28;38565;-79
2021/06/04 13:04:36;;;;;;;13.52;9.88;;;;;;;;;;5054565;28;39319;-76
2021/06/04 13:07:03;;;;;;;11.48;9.57;;;;;;;;;;5053986;28;36399;-78
2021/06/04 13:09:41;;;;;;;12.57;10.18;;;;;;;;;;5057408;28;40136;-77
2021/06/04 13:12:20;;;;;;;12.27;8.32;;;;;;;;;;5058782;28;38637;-76
2021/06/04 13:14:47;;;;;;;14.40;8.95;;;;;;;;;;5064684;28;38105;-77
2021/06/04 13:17:23;;;;;;;9.25;7.43;;;;;;;;;;5055018;27;37129;-78
2021/06/04 13:19:50;;;;;;;11.48;8.73;;;;;;;;;;5058902;28;39317;-78
2021/06/04 13:22:18;;;;;;;15.02;9.45;;;;;;;;;;5049155;27;39757;-76
2021/06/04 13:24:46;;;;;;;11.43;9.07;;;;;;;;;;5052707;28;39929;-78
2021/06/04 13:27:21;;;;;;;14.20;9.60;;;;;;;;;;5060564;27;37956;-78
2021/06/04 13:29:54;;;;;;;11.50;9.20;;;;;;;;;;5053811;28;38977;-77
2021/06/04 13:32:23;;;;;;;13.15;10.68;;;;;;;;;;5051548;27;38725;-78
2021/06/04 13:35:02;;;;;;;12.25;9.23;;;;;;;;;;5057815;27;38485;-78
2021/06/04 13:37:45;;;;;;;13.57;9.55;;;;;;;;;;5061926;27;39341;-76
2021/06/04 13:40:13;;;;;;;16.67;10.18;;;;;;;;;;5059598;27;40872;-78
2021/06/04 13:42:43;;;;;;;10.98;8.93;;;;;;;;;;5059581;27;38135;-77
2021/06/04 13:45:12;;;;;;;12.23;8.60;;;;;;;;;;5062365;27;38053;-78
2021/06/04 13:47:43;;;;;;;8.40;6.82;;;;;;;;;;5074574;27;38551;-76
2021/06/04 13:50:21;;;;;;;10.60;7.80;;;;;;;;;;5057440;27;37776;-76
2021/06/04 13:53:06;;;;;;;11.55;8.20;;;;;;;;;;5057809;28;37636;-79
2021/06/04 13:55:33;;;;;;;11.95;6.82;;;;;;;;;;5041706;27;48701;-77
2021/06/04 13:58:13;;;;;;;11.13;7.82;;;;;;;;;;5065152;28;38054;-76
2021/06/04 14:00:39;;;;;;;10.20;7.22;;;;;;;;;;5056535;27;48978;-77
2021/06/04 14:03:10;;;;;;;14.30;8.65;;;;;;;;;;5050783;28;38902;-76
2021/06/04 14:05:37;;;;;;;13.18;9.05;;;;;;;;;;5058453;27;39329;-78
2021/06/04 14:08:03;;;;;;;11.02;7.68;;;;;;;;;;5057082;27;38055;-78
2021/06/04 14:10:37;;;;;;;12.05;7.63;;;;;;;;;;5059504;27;39775;-78
2021/06/04 14:13:07;;;;;;;9.60;7.65;;;;;;;;;;5051596;28;39444;-77
2021/06/04 14:15:39;;;;;;;12.63;7.97;;;;;;;;;;5068285;27;40151;-78
2021/06/04 14:18:24;;;;;;;10.38;6.35;;;;;;;;;;5050191;27;36767;-77
2021/06/04 14:20:51;;;;;;;14.15;6.97;;;;;;;;;;5048970;27;39717;-78
2021/06/04 14:23:25;;;;;;;9.65;6.32;;;;;;;;;;5051184;27;38443;-77
2021/06/04 14:26:12;;;;;;;8.65;7.10;;;;;;;;;;5050926;27;38286;-79
2021/06/04 14:28:41;;;;;;;7.40;6.35;;;;;;;;;;5064420;28;47290;-76
2021/06/04 14:31:08;;;;;;;11.98;6.82;;;;;;;;;;5054698;27;39675;-78
2021/06/04 14:33:40;;;;;;;9.30;7.10;;;;;;;;;;5062135;27;39986;-76
2021/06/04 14:36:19;;;;;;;12.95;7.70;;;;;;;;;;5059130;27;39252;-76
2021/06/04 14:38:47;;;;;;;14.45;10.93;;;;;;;;;;5047778;28;37706;-77
2021/06/04 14:41:16;;;;;;;13.18;9.88;;;;;;;;;;5053746;27;40529;-77
2021/06/04 14:43:45;;;;;;;11.77;8.27;;;;;;;;;;5051487;28;39627;-77
2021/06/04 14:46:38;;;;;;;11.73;8.75;;;;;;;;;;5053553;28;39775;-76